createdAt,value
2018-11-05T00:01:04.292Z,8.53
2018-11-05T00:03:31.220Z,8.53
2018-11-05T00:05:58.141Z,8.52
2018-11-05T00:08:25.052Z,8.53
2018-11-05T00:10:51.968Z,8.53
2018-11-05T00:13:18.893Z,8.54
2018-11-05T00:15:45.903Z,8.51
2018-11-05T00:18:12.817Z,8.51
2018-11-05T00:20:39.761Z,8.51
2018-11-05T00:23:06.683Z,8.51
2018-11-05T00:25:33.620Z,8.50
2018-11-05T00:28:00.541Z,8.50
2018-11-05T00:30:27.473Z,8.52
2018-11-05T00:32:54.394Z,8.51
2018-11-05T00:35:21.316Z,8.43
2018-11-05T00:37:48.245Z,8.52
2018-11-05T00:40:15.883Z,8.51
2018-11-05T00:42:43.421Z,8.53
2018-11-05T00:45:11.204Z,8.49
2018-11-05T00:47:38.156Z,8.50
2018-11-05T00:50:09.088Z,8.49
2018-11-05T00:52:36.076Z,8.51
2018-11-05T00:55:03.061Z,8.52
2018-11-05T00:57:29.978Z,8.48
2018-11-05T00:59:56.932Z,8.52
2018-11-05T01:02:23.863Z,8.50
2018-11-05T01:04:50.790Z,8.50
2018-11-05T01:07:17.710Z,8.50
2018-11-05T01:09:44.650Z,8.53
2018-11-05T01:12:11.562Z,8.52
2018-11-05T01:14:38.493Z,8.50
2018-11-05T01:17:05.454Z,8.49
2018-11-05T01:19:32.390Z,8.49
2018-11-05T01:21:59.301Z,8.53
2018-11-05T01:24:26.456Z,8.52
2018-11-05T01:26:53.396Z,8.48
2018-11-05T01:29:20.339Z,8.51
2018-11-05T01:31:47.274Z,8.51
2018-11-05T01:34:14.234Z,8.51
2018-11-05T01:36:41.158Z,8.51
2018-11-05T01:39:09.381Z,8.51
2018-11-05T01:41:36.349Z,8.51
2018-11-05T01:44:03.280Z,8.49
2018-11-05T01:46:30.217Z,8.51
2018-11-05T01:48:57.137Z,8.49
2018-11-05T01:51:24.061Z,8.52
2018-11-05T01:53:51.033Z,8.51
2018-11-05T01:56:17.974Z,8.52
2018-11-05T01:58:44.930Z,8.51
2018-11-05T02:01:11.867Z,8.52
2018-11-05T02:03:38.772Z,8.51
2018-11-05T02:06:05.718Z,8.50
2018-11-05T02:08:32.636Z,8.52
2018-11-05T02:10:59.581Z,8.52
2018-11-05T02:13:26.563Z,8.51
2018-11-05T02:16:00.227Z,8.51
2018-11-05T02:18:27.156Z,8.51
2018-11-05T02:20:54.113Z,8.51
2018-11-05T02:23:21.036Z,8.51
2018-11-05T02:25:47.992Z,8.54
2018-11-05T02:28:14.913Z,8.55
2018-11-05T02:30:41.862Z,8.55
2018-11-05T02:33:08.782Z,8.55
2018-11-05T02:35:35.731Z,8.57
2018-11-05T02:38:02.669Z,8.56
2018-11-05T02:40:29.595Z,8.55
2018-11-05T02:42:56.523Z,8.54
2018-11-05T02:45:23.497Z,8.49
2018-11-05T02:47:50.400Z,8.54
2018-11-05T02:50:17.334Z,8.50
2018-11-05T02:52:45.139Z,8.56
2018-11-05T02:55:12.109Z,8.54
2018-11-05T02:57:39.061Z,8.56
2018-11-05T03:00:08.760Z,8.55
2018-11-05T03:02:35.745Z,8.54
2018-11-05T03:05:02.829Z,8.54
2018-11-05T03:07:29.751Z,8.53
2018-11-05T03:09:56.694Z,8.54
2018-11-05T03:12:23.688Z,8.53
2018-11-05T03:14:50.636Z,8.54
2018-11-05T03:17:17.584Z,8.56
2018-11-05T03:19:44.519Z,8.54
2018-11-05T03:22:11.448Z,8.55
2018-11-05T03:24:38.388Z,8.54
2018-11-05T03:27:05.575Z,8.54
2018-11-05T03:29:32.527Z,8.55
2018-11-05T03:31:59.488Z,8.57
2018-11-05T03:34:26.430Z,8.55
2018-11-05T03:36:53.376Z,8.58
2018-11-05T03:39:27.151Z,8.58
2018-11-05T03:41:54.083Z,8.55
2018-11-05T03:44:21.014Z,8.58
2018-11-05T03:46:47.943Z,8.60
2018-11-05T03:49:14.884Z,8.60
2018-11-05T03:51:41.850Z,8.61
2018-11-05T03:54:08.801Z,8.64
2018-11-05T03:56:35.898Z,8.62
2018-11-05T03:59:02.760Z,8.61
2018-11-05T04:01:29.692Z,8.62
2018-11-05T04:03:56.602Z,8.64
2018-11-05T04:06:23.571Z,8.66
2018-11-05T04:08:50.510Z,8.64
2018-11-05T04:11:17.481Z,8.66
2018-11-05T04:13:44.409Z,8.66
2018-11-05T04:16:11.492Z,8.68
2018-11-05T04:18:38.350Z,8.67
2018-11-05T04:21:05.330Z,8.66
2018-11-05T04:23:32.261Z,8.65
2018-11-05T04:25:59.200Z,8.67
2018-11-05T04:28:26.139Z,8.67
2018-11-05T04:30:53.073Z,8.64
2018-11-05T04:33:20.035Z,8.67
2018-11-05T04:35:46.987Z,8.67
2018-11-05T04:38:13.920Z,8.66
2018-11-05T04:40:40.852Z,8.64
2018-11-05T04:43:07.810Z,8.66
2018-11-05T04:45:34.774Z,8.64
2018-11-05T04:48:01.702Z,8.62
2018-11-05T04:50:28.651Z,8.68
2018-11-05T04:52:55.576Z,8.69
2018-11-05T04:55:22.537Z,8.68
2018-11-05T04:57:49.477Z,8.69
2018-11-05T05:00:17.646Z,8.70
2018-11-05T05:02:44.692Z,8.69
2018-11-05T05:05:12.869Z,8.71
2018-11-05T05:07:39.814Z,8.75
2018-11-05T05:10:07.280Z,8.70
2018-11-05T05:12:34.288Z,8.73
2018-11-05T05:15:01.195Z,8.73
2018-11-05T05:17:28.276Z,8.73
2018-11-05T05:19:55.223Z,8.74
2018-11-05T05:22:22.174Z,8.74
2018-11-05T05:24:49.040Z,8.75
2018-11-05T05:27:15.969Z,8.76
2018-11-05T05:29:42.865Z,8.76
2018-11-05T05:32:09.789Z,8.78
2018-11-05T05:34:36.694Z,8.79
2018-11-05T05:37:03.628Z,8.78
2018-11-05T05:39:30.553Z,8.78
2018-11-05T05:41:57.608Z,8.79
2018-11-05T05:44:24.517Z,8.78
2018-11-05T05:46:51.436Z,8.80
2018-11-05T05:49:18.358Z,8.81
2018-11-05T05:51:45.281Z,8.78
2018-11-05T05:54:12.193Z,8.82
2018-11-05T05:56:39.127Z,8.85
2018-11-05T05:59:06.053Z,8.84
2018-11-05T06:01:33.038Z,8.85
2018-11-05T06:03:59.972Z,8.85
2018-11-05T06:06:26.991Z,8.87
2018-11-05T06:08:53.901Z,8.86
2018-11-05T06:11:21.044Z,8.86
2018-11-05T06:13:47.984Z,8.87
2018-11-05T06:16:14.901Z,8.88
2018-11-05T06:18:41.928Z,8.88
2018-11-05T06:21:08.872Z,8.90
2018-11-05T06:23:35.820Z,8.89
2018-11-05T06:26:02.797Z,8.90
2018-11-05T06:28:29.777Z,8.89
2018-11-05T06:30:56.691Z,8.90
2018-11-05T06:33:23.663Z,8.89
2018-11-05T06:35:50.588Z,8.90
2018-11-05T06:38:17.527Z,8.91
2018-11-05T06:40:44.474Z,8.91
2018-11-05T06:43:11.440Z,8.91
2018-11-05T06:45:38.382Z,8.92
2018-11-05T06:48:05.366Z,8.91
2018-11-05T06:50:32.317Z,8.94
2018-11-05T06:52:59.310Z,8.94
2018-11-05T06:55:26.302Z,8.92
2018-11-05T06:57:53.340Z,8.96
2018-11-05T07:00:21.540Z,8.96
2018-11-05T07:02:48.480Z,8.98
2018-11-05T07:05:15.640Z,8.97
2018-11-05T07:07:49.395Z,8.98
2018-11-05T07:10:17.014Z,9.01
2018-11-05T07:12:44.347Z,9.03
2018-11-05T07:15:12.558Z,9.04
2018-11-05T07:17:39.509Z,9.05
2018-11-05T07:20:08.481Z,9.06
2018-11-05T07:22:35.417Z,9.04
2018-11-05T07:25:02.373Z,9.09
2018-11-05T07:27:29.313Z,9.11
2018-11-05T07:29:56.255Z,9.12
2018-11-05T07:32:23.194Z,9.13
2018-11-05T07:34:50.109Z,9.13
2018-11-05T07:37:17.013Z,9.14
2018-11-05T07:39:43.933Z,9.14
2018-11-05T07:42:10.846Z,9.15
2018-11-05T07:44:37.757Z,9.17
2018-11-05T07:47:04.729Z,9.17
2018-11-05T07:49:31.948Z,9.22
2018-11-05T07:51:58.880Z,9.20
2018-11-05T07:54:25.819Z,9.23
2018-11-05T07:56:52.861Z,9.23
2018-11-05T07:59:19.764Z,9.26
2018-11-05T08:01:46.709Z,9.25
2018-11-05T08:04:13.642Z,9.30
2018-11-05T08:06:40.650Z,9.31
2018-11-05T08:09:08.950Z,9.34
2018-11-05T08:11:35.917Z,9.33
2018-11-05T08:14:02.942Z,9.36
2018-11-05T08:16:29.913Z,9.33
2018-11-05T08:18:56.857Z,9.39
2018-11-05T08:21:23.828Z,9.40
2018-11-05T08:23:50.783Z,9.41
2018-11-05T08:26:17.739Z,9.41
2018-11-05T08:28:44.701Z,9.48
2018-11-05T08:31:11.649Z,9.50
2018-11-05T08:33:38.674Z,9.51
2018-11-05T08:36:05.678Z,9.51
2018-11-05T08:38:32.625Z,9.55
2018-11-05T08:40:59.585Z,9.54
2018-11-05T08:43:26.556Z,9.58
2018-11-05T08:45:53.493Z,9.58
2018-11-05T08:48:20.425Z,9.65
2018-11-05T08:50:47.477Z,9.66
2018-11-05T08:53:14.334Z,9.69
2018-11-05T08:55:41.285Z,9.67
2018-11-05T08:58:08.238Z,9.68
2018-11-05T09:00:40.834Z,9.62
2018-11-05T09:03:07.772Z,9.72
2018-11-05T09:05:34.709Z,9.76
2018-11-05T09:08:01.638Z,9.79
2018-11-05T09:10:28.775Z,9.82
2018-11-05T09:12:55.514Z,9.89
2018-11-05T09:15:29.362Z,9.91
2018-11-05T09:17:56.308Z,9.93
2018-11-05T09:20:23.240Z,9.95
2018-11-05T09:22:50.774Z,9.97
2018-11-05T09:25:17.781Z,9.97
2018-11-05T09:27:44.750Z,10.02
2018-11-05T09:30:15.005Z,10.05
2018-11-05T09:32:42.457Z,10.08
2018-11-05T09:35:09.716Z,10.10
2018-11-05T09:37:36.656Z,10.15
2018-11-05T09:40:05.028Z,10.21
2018-11-05T09:42:31.981Z,10.26
2018-11-05T09:44:58.916Z,10.25
2018-11-05T09:47:25.829Z,10.26
2018-11-05T09:49:52.788Z,10.27
2018-11-05T09:52:19.793Z,10.31
2018-11-05T09:54:46.705Z,10.29
2018-11-05T09:57:13.730Z,10.31
2018-11-05T09:59:40.613Z,10.35
2018-11-05T10:02:07.564Z,10.39
2018-11-05T10:04:34.664Z,10.42
2018-11-05T10:07:01.503Z,10.44
2018-11-05T10:09:28.536Z,10.49
2018-11-05T10:11:55.563Z,10.54
2018-11-05T10:14:22.563Z,10.55
2018-11-05T10:16:49.756Z,10.59
2018-11-05T10:19:16.740Z,10.60
2018-11-05T10:21:43.718Z,10.61
2018-11-05T10:24:10.660Z,10.56
2018-11-05T10:26:37.637Z,10.59
2018-11-05T10:29:04.599Z,10.62
2018-11-05T10:31:31.544Z,10.64
2018-11-05T10:33:58.882Z,10.70
2018-11-05T10:36:25.845Z,10.73
2018-11-05T10:38:52.934Z,10.71
2018-11-05T10:41:20.257Z,10.67
2018-11-05T10:43:47.389Z,10.68
2018-11-05T10:46:14.378Z,10.76
2018-11-05T10:48:41.289Z,10.78
2018-11-05T10:51:08.279Z,10.71
2018-11-05T10:53:35.214Z,10.70
2018-11-05T10:56:02.197Z,10.71
2018-11-05T10:58:29.162Z,10.71
2018-11-05T11:01:01.789Z,10.69
2018-11-05T11:03:36.015Z,10.72
2018-11-05T11:06:03.661Z,10.71
2018-11-05T11:08:30.607Z,10.68
2018-11-05T11:10:57.527Z,10.64
2018-11-05T11:13:24.429Z,10.62
2018-11-05T11:15:51.346Z,10.65
2018-11-05T11:18:18.254Z,10.65
2018-11-05T11:20:45.161Z,10.69
2018-11-05T11:23:12.073Z,10.75
2018-11-05T11:25:38.978Z,10.81
2018-11-05T11:28:06.111Z,10.84
2018-11-05T11:30:32.854Z,10.82
2018-11-05T11:32:59.768Z,10.81
2018-11-05T11:35:26.695Z,10.75
2018-11-05T11:37:53.621Z,10.74
2018-11-05T11:40:21.916Z,10.72
2018-11-05T11:42:49.191Z,10.80
2018-11-05T11:45:17.204Z,10.87
2018-11-05T11:47:44.112Z,10.86
2018-11-05T11:50:12.269Z,10.83
2018-11-05T11:52:39.264Z,10.85
2018-11-05T11:55:07.703Z,10.83
2018-11-05T11:57:34.757Z,10.90
2018-11-05T12:00:01.673Z,10.86
2018-11-05T12:02:28.630Z,10.85
2018-11-05T12:04:55.679Z,10.87
2018-11-05T12:07:22.553Z,10.85
2018-11-05T12:09:49.490Z,10.87
2018-11-05T12:12:16.433Z,10.86
2018-11-05T12:14:43.593Z,10.89
2018-11-05T12:17:10.350Z,10.85
2018-11-05T12:19:37.292Z,10.83
2018-11-05T12:22:11.004Z,10.82
2018-11-05T12:24:38.146Z,10.80
2018-11-05T12:27:04.964Z,10.80
2018-11-05T12:29:31.925Z,10.81
2018-11-05T12:31:58.882Z,10.78
2018-11-05T12:34:25.809Z,10.78
2018-11-05T12:36:52.757Z,10.78
2018-11-05T12:39:19.722Z,10.75
2018-11-05T12:41:46.672Z,10.70
2018-11-05T12:44:13.624Z,10.70
2018-11-05T12:46:41.376Z,10.70
2018-11-05T12:49:08.308Z,10.67
2018-11-05T12:51:35.265Z,10.69
2018-11-05T12:54:02.529Z,10.71
2018-11-05T12:56:29.519Z,10.70
2018-11-05T12:58:56.830Z,10.71
2018-11-05T13:01:23.758Z,10.70
2018-11-05T13:03:50.706Z,10.70
2018-11-05T13:06:17.634Z,10.68
2018-11-05T13:08:44.565Z,10.68
2018-11-05T13:11:11.481Z,10.63
2018-11-05T13:13:38.392Z,10.65
2018-11-05T13:16:05.313Z,10.66
2018-11-05T13:18:32.225Z,10.61
2018-11-05T13:20:59.147Z,10.64
2018-11-05T13:23:31.649Z,10.64
2018-11-05T13:25:58.548Z,10.66
2018-11-05T13:28:25.524Z,10.65
2018-11-05T13:30:52.429Z,10.64
2018-11-05T13:33:19.322Z,10.58
2018-11-05T13:35:46.221Z,10.62
2018-11-05T13:38:13.718Z,10.62
2018-11-05T13:40:40.060Z,10.55
2018-11-05T13:43:06.980Z,10.56
2018-11-05T13:45:34.330Z,10.53
2018-11-05T13:48:00.826Z,10.55
2018-11-05T13:50:28.052Z,10.53
2018-11-05T13:52:54.594Z,10.53
2018-11-05T13:55:21.494Z,10.54
2018-11-05T13:57:48.532Z,10.53
2018-11-05T14:00:18.699Z,10.55
2018-11-05T14:02:45.605Z,10.56
2018-11-05T14:05:12.793Z,10.55
2018-11-05T14:07:39.706Z,10.51
2018-11-05T14:10:09.027Z,10.50
2018-11-05T14:12:35.990Z,10.48
2018-11-05T14:15:02.936Z,10.50
2018-11-05T14:17:29.839Z,10.51
2018-11-05T14:19:56.772Z,10.51
2018-11-05T14:22:23.720Z,10.53
2018-11-05T14:24:50.640Z,10.51
2018-11-05T14:27:17.620Z,10.54
2018-11-05T14:29:44.944Z,10.53
2018-11-05T14:32:11.388Z,10.52
2018-11-05T14:37:11.907Z,10.50
2018-11-05T14:39:38.788Z,10.51
2018-11-05T14:42:05.740Z,10.46
2018-11-05T14:44:32.689Z,10.46
2018-11-05T14:46:59.617Z,10.46
2018-11-05T14:49:26.525Z,10.49
2018-11-05T14:51:53.448Z,10.49
2018-11-05T14:54:20.368Z,10.46
2018-11-05T14:56:47.270Z,10.48
2018-11-05T14:59:14.189Z,10.44
2018-11-05T15:01:41.166Z,10.44
2018-11-05T15:04:08.116Z,10.41
2018-11-05T15:06:35.042Z,10.42
2018-11-05T15:09:02.101Z,10.40
2018-11-05T15:11:29.010Z,10.39
2018-11-05T15:13:55.956Z,10.41
2018-11-05T15:16:22.889Z,10.50
2018-11-05T15:18:50.371Z,10.58
2018-11-05T15:21:16.792Z,10.67
2018-11-05T15:23:43.810Z,10.59
2018-11-05T15:26:10.869Z,10.54
2018-11-05T15:28:37.701Z,10.53
2018-11-05T15:31:05.216Z,10.58
2018-11-05T15:33:32.178Z,10.51
2018-11-05T15:35:59.120Z,10.53
2018-11-05T15:38:26.045Z,10.56
2018-11-05T15:40:52.984Z,10.59
2018-11-05T15:43:19.908Z,10.52
2018-11-05T15:45:46.857Z,10.49
2018-11-05T15:48:13.794Z,10.51
2018-11-05T15:50:40.936Z,10.48
2018-11-05T15:53:08.169Z,10.44
2018-11-05T15:55:34.899Z,10.37
2018-11-05T15:58:01.847Z,10.33
2018-11-05T16:00:28.789Z,10.37
2018-11-05T16:02:57.246Z,10.37
2018-11-05T16:05:24.158Z,10.36
2018-11-05T16:07:51.077Z,10.35
2018-11-05T16:10:17.997Z,10.34
2018-11-05T16:12:44.909Z,10.29
2018-11-05T16:15:12.465Z,10.33
2018-11-05T16:17:39.372Z,10.32
2018-11-05T16:20:08.296Z,10.27
2018-11-05T16:22:35.201Z,10.33
2018-11-05T16:25:02.196Z,10.38
2018-11-05T16:27:29.687Z,10.41
2018-11-05T16:29:56.645Z,10.39
2018-11-05T16:32:23.557Z,10.39
2018-11-05T16:34:50.542Z,10.39
2018-11-05T16:37:17.406Z,10.38
2018-11-05T16:39:44.485Z,10.38
2018-11-05T16:42:11.288Z,10.32
2018-11-05T16:44:38.175Z,10.32
2018-11-05T16:47:05.138Z,10.29
2018-11-05T16:49:32.048Z,10.29
2018-11-05T16:51:59.028Z,10.28
2018-11-05T16:54:25.944Z,10.26
2018-11-05T16:56:52.857Z,10.23
2018-11-05T16:59:19.760Z,10.23
2018-11-05T17:01:47.265Z,10.25
2018-11-05T17:04:13.814Z,10.23
2018-11-05T17:06:40.764Z,10.21
2018-11-05T17:09:08.353Z,10.29
2018-11-05T17:11:35.309Z,10.28
2018-11-05T17:16:36.010Z,10.28
2018-11-05T17:19:03.061Z,10.33
2018-11-05T17:21:29.997Z,10.33
2018-11-05T17:23:56.936Z,10.33
2018-11-05T17:26:23.964Z,10.33
2018-11-05T17:28:50.816Z,10.33
2018-11-05T17:31:17.794Z,10.31
2018-11-05T17:33:44.745Z,10.31
2018-11-05T17:36:11.686Z,10.26
2018-11-05T17:38:38.654Z,10.25
2018-11-05T17:41:05.924Z,10.18
2018-11-05T17:43:32.890Z,10.20
2018-11-05T17:45:59.876Z,10.17
2018-11-05T17:48:26.849Z,10.16
2018-11-05T17:50:53.907Z,10.10
2018-11-05T17:53:20.754Z,10.06
2018-11-05T17:55:47.729Z,10.10
2018-11-05T17:58:14.693Z,10.10
2018-11-05T18:00:41.677Z,10.12
2018-11-05T18:03:08.634Z,10.13
2018-11-05T18:05:35.584Z,10.16
2018-11-05T18:08:02.543Z,10.15
2018-11-05T18:10:29.484Z,10.10
2018-11-05T18:12:56.444Z,10.10
2018-11-05T18:15:23.379Z,10.05
2018-11-05T18:17:50.337Z,10.05
2018-11-05T18:20:17.533Z,10.05
2018-11-05T18:22:44.500Z,9.99
2018-11-05T18:25:12.941Z,10.04
2018-11-05T18:27:46.973Z,10.01
2018-11-05T18:30:14.518Z,10.03
2018-11-05T18:32:41.486Z,10.05
2018-11-05T18:35:09.751Z,10.07
2018-11-05T18:37:36.741Z,10.04
2018-11-05T18:40:06.149Z,10.08
2018-11-05T18:42:33.091Z,10.10
2018-11-05T18:45:00.057Z,10.08
2018-11-05T18:47:27.020Z,10.10
2018-11-05T18:49:54.024Z,10.11
2018-11-05T18:52:20.931Z,10.09
2018-11-05T18:54:47.906Z,10.11
2018-11-05T18:57:14.922Z,10.09
2018-11-05T18:59:41.862Z,10.10
2018-11-05T19:02:08.838Z,10.08
2018-11-05T19:04:35.864Z,10.08
2018-11-05T19:07:02.784Z,10.06
2018-11-05T19:09:29.735Z,10.05
2018-11-05T19:11:56.641Z,10.07
2018-11-05T19:14:23.560Z,10.07
2018-11-05T19:16:50.486Z,10.08
2018-11-05T19:19:17.395Z,10.04
2018-11-05T19:21:44.324Z,10.03
2018-11-05T19:24:11.325Z,10.01
2018-11-05T19:26:38.202Z,10.02
2018-11-05T19:29:05.125Z,10.01
2018-11-05T19:31:32.037Z,10.00
2018-11-05T19:33:58.967Z,9.96
2018-11-05T19:36:25.897Z,9.91
2018-11-05T19:38:52.800Z,9.96
2018-11-05T19:41:19.714Z,9.93
2018-11-05T19:43:46.619Z,9.91
2018-11-05T19:46:13.542Z,9.90
2018-11-05T19:48:40.450Z,9.86
2018-11-05T19:51:07.389Z,9.88
2018-11-05T19:53:34.361Z,9.86
2018-11-05T19:56:01.308Z,9.85
2018-11-05T19:58:28.169Z,9.84
2018-11-05T20:00:55.163Z,9.83
2018-11-05T20:03:22.028Z,9.78
2018-11-05T20:05:48.988Z,9.73
2018-11-05T20:08:15.885Z,9.64
2018-11-05T20:10:42.816Z,9.59
2018-11-05T20:13:09.724Z,9.54
2018-11-05T20:15:36.673Z,9.46
2018-11-05T20:18:03.666Z,9.42
2018-11-05T20:20:30.629Z,9.39
2018-11-05T20:22:57.573Z,9.35
2018-11-05T20:25:24.426Z,9.34
2018-11-05T20:27:51.688Z,9.29
2018-11-05T20:30:20.021Z,9.32
2018-11-05T20:32:48.458Z,9.30
2018-11-05T20:35:15.169Z,9.26
2018-11-05T20:37:42.143Z,9.25
2018-11-05T20:40:11.714Z,9.21
2018-11-05T20:42:38.616Z,9.21
2018-11-05T20:45:05.976Z,9.15
2018-11-05T20:47:33.616Z,9.12
2018-11-05T20:50:01.460Z,9.05
2018-11-05T20:52:29.098Z,9.00
2018-11-05T20:54:56.398Z,8.94
2018-11-05T20:57:23.581Z,8.90
2018-11-05T20:59:50.535Z,8.85
2018-11-05T21:02:17.500Z,8.84
2018-11-05T21:04:44.415Z,8.82
2018-11-05T21:07:12.122Z,8.83
2018-11-05T21:09:39.708Z,8.81
2018-11-05T21:12:07.838Z,8.83
2018-11-05T21:14:35.344Z,8.79
2018-11-05T21:17:02.492Z,8.75
2018-11-05T21:19:29.540Z,8.68
2018-11-05T21:21:57.359Z,8.65
2018-11-05T21:24:24.452Z,8.64
2018-11-05T21:26:51.403Z,8.63
2018-11-05T21:29:19.043Z,8.65
2018-11-05T21:31:46.729Z,8.61
2018-11-05T21:34:14.384Z,8.58
2018-11-05T21:36:41.708Z,8.59
2018-11-05T21:39:10.948Z,8.59
2018-11-05T21:41:39.441Z,8.58
2018-11-05T21:44:06.982Z,8.52
2018-11-05T21:46:34.109Z,8.54
2018-11-05T21:49:01.053Z,8.47
2018-11-05T21:51:28.801Z,8.45
2018-11-05T21:53:56.502Z,8.44
2018-11-05T21:56:23.511Z,8.35
2018-11-05T21:58:50.857Z,8.36
2018-11-05T22:01:17.792Z,8.33
2018-11-05T22:03:44.967Z,8.33
2018-11-05T22:06:12.460Z,8.34
2018-11-05T22:08:40.026Z,8.32
2018-11-05T22:11:07.181Z,8.33
2018-11-05T22:13:34.154Z,8.37
2018-11-05T22:16:01.687Z,8.40
2018-11-05T22:18:29.363Z,8.37
2018-11-05T22:23:30.772Z,8.35
2018-11-05T22:25:57.952Z,8.34
2018-11-05T22:28:25.420Z,8.35
2018-11-05T22:30:52.393Z,8.32
2018-11-05T22:33:19.324Z,8.32
2018-11-05T22:35:46.295Z,8.31
2018-11-05T22:38:13.297Z,8.25
2018-11-05T22:40:40.215Z,8.21
2018-11-05T22:43:13.888Z,8.19
2018-11-05T22:45:40.889Z,8.15
2018-11-05T22:48:07.865Z,8.16
2018-11-05T22:50:34.813Z,8.14
2018-11-05T22:53:01.784Z,8.14
2018-11-05T22:55:28.732Z,8.09
2018-11-05T22:57:55.656Z,8.13
2018-11-05T23:00:28.277Z,8.15
2018-11-05T23:03:32.413Z,8.15
2018-11-05T23:05:59.609Z,8.15
2018-11-05T23:08:26.622Z,8.14
2018-11-05T23:10:53.557Z,8.17
2018-11-05T23:13:20.567Z,8.21
2018-11-05T23:15:47.516Z,8.24
2018-11-05T23:18:14.485Z,8.29
2018-11-05T23:20:41.477Z,8.30
2018-11-05T23:23:08.413Z,8.33
2018-11-05T23:25:35.335Z,8.33
2018-11-05T23:28:02.243Z,8.33
2018-11-05T23:30:29.167Z,8.29
2018-11-05T23:32:56.081Z,8.23
2018-11-05T23:35:23.009Z,8.23
2018-11-05T23:37:49.920Z,8.18
2018-11-05T23:40:16.852Z,8.14
2018-11-05T23:42:43.737Z,8.11
2018-11-05T23:45:13.320Z,8.10
2018-11-05T23:47:40.273Z,8.05
2018-11-05T23:50:07.526Z,8.01
2018-11-05T23:52:34.469Z,7.99
2018-11-05T23:55:01.411Z,7.94
2018-11-05T23:57:28.312Z,7.90
2018-11-05T23:59:55.208Z,7.82
